Main page
METAR-TAF:

METAR-TAF

Airports :

Albacete Airport

Albacete, Spain

latitude: 38-57N, longitude: 001-51W, elevation: 702 m

Current weather observation

The report was made 1 hour and 14 minutes ago, at 22:00 UTC
Wind 4 kt from the Southwest
Temperature 8°C
Humidity 100%
Pressure 1026 hPa
Visibility 10 km or more
no clouds below 1500 m and no cumulonimbus

METAR: LEAB 282200Z 23004KT CAVOK 08/08 Q1026 NOSIG

Time: 00:14 (23:14 UTC)

Forecast

The report was made 6 hours and 14 minutes ago, at 17:00 UTC
Forecast valid from 28 at 18 UTC to 29 at 18 UTC
Wind 7 kt from the Northwest
Visibility 10 km or more
Scattered clouds at a height of 2000 ft
Probability 40% :
Temporary
from 29 at 00 UTC to 29 at 11 UTC
Visibility: 3000 m
Broken clouds at a height of 800 ft
mist
Probability 30% :
Temporary
from 29 at 04 UTC to 29 at 09 UTC
Visibility: 0200 m
at a height of 200 ft
fog

TAF: LEAB 281700Z 2818/2918 32007KT 9999 SCT020 TX19/2915Z TN04/2906Z PROB40 TEMPO 2900/2911 3000 BR BKN008 PROB30 TEMPO 2904/2909 0200 FG VV002

Weather observations and forecasts of more than 4000 airports (METAR and TAF reports).

The available stations are represented by yellow and red dots on the map.

Hover mouse over dot to see the name of the station.

Then click to see weather observations and forecasts.

To change the map : click on the green buttons with a black cross to zoom in, on the green button with a dash to zoom out, or on the green arrows for adjacent maps.


METAR-TAF: